sensor_id;sensor_type;location;lat;lon;timestamp;temperature;humidity
36556;DHT22;40859;50.560;7.268;2023-02-18T00:01:01;22.30;80.40
36556;DHT22;40859;50.560;7.268;2023-02-18T00:03:28;22.30;80.40
36556;DHT22;40859;50.560;7.268;2023-02-18T00:05:54;22.30;80.40
36556;DHT22;40859;50.560;7.268;2023-02-18T00:08:20;22.30;80.40
36556;DHT22;40859;50.560;7.268;2023-02-18T00:10:46;22.30;80.30
36556;DHT22;40859;50.560;7.268;2023-02-18T00:13:11;22.30;80.30
36556;DHT22;40859;50.560;7.268;2023-02-18T00:15:37;22.30;80.30
36556;DHT22;40859;50.560;7.268;2023-02-18T00:18:03;22.30;80.30
36556;DHT22;40859;50.560;7.268;2023-02-18T00:20:29;22.30;80.30
36556;DHT22;40859;50.560;7.268;2023-02-18T00:22:54;22.30;80.40
36556;DHT22;40859;50.560;7.268;2023-02-18T00:25:20;22.30;80.30
36556;DHT22;40859;50.560;7.268;2023-02-18T00:27:46;22.30;80.30
36556;DHT22;40859;50.560;7.268;2023-02-18T00:30:11;22.30;80.30
36556;DHT22;40859;50.560;7.268;2023-02-18T06:38:08;21.80;78.40
36556;DHT22;40859;50.560;7.268;2023-02-18T06:40:33;21.80;78.50
36556;DHT22;40859;50.560;7.268;2023-02-18T06:42:59;21.90;77.90
36556;DHT22;40859;50.560;7.268;2023-02-18T06:45:25;21.80;78.40
36556;DHT22;40859;50.560;7.268;2023-02-18T06:47:50;21.90;78.50
36556;DHT22;40859;50.560;7.268;2023-02-18T06:50:16;21.90;78.50
36556;DHT22;40859;50.560;7.268;2023-02-18T06:52:43;21.90;78.50
36556;DHT22;40859;50.560;7.268;2023-02-18T06:55:09;21.90;78.60
36556;DHT22;40859;50.560;7.268;2023-02-18T06:57:35;21.90;78.60
36556;DHT22;40859;50.560;7.268;2023-02-18T07:00:01;21.80;78.40
36556;DHT22;40859;50.560;7.268;2023-02-18T07:02:26;21.90;78.50
36556;DHT22;40859;50.560;7.268;2023-02-18T07:04:52;21.90;78.50
36556;DHT22;40859;50.560;7.268;2023-02-18T07:07:18;21.80;78.80
36556;DHT22;40859;50.560;7.268;2023-02-18T07:09:44;21.80;79.50
36556;DHT22;40859;50.560;7.268;2023-02-18T07:12:09;21.80;79.70
36556;DHT22;40859;50.560;7.268;2023-02-18T07:14:35;21.80;79.40
36556;DHT22;40859;50.560;7.268;2023-02-18T07:17:00;21.80;79.20
36556;DHT22;40859;50.560;7.268;2023-02-18T07:19:26;21.90;79.10
36556;DHT22;40859;50.560;7.268;2023-02-18T07:21:52;21.80;79.00
36556;DHT22;40859;50.560;7.268;2023-02-18T07:24:22;21.80;78.90
36556;DHT22;40859;50.560;7.268;2023-02-18T07:26:47;21.80;78.70
36556;DHT22;40859;50.560;7.268;2023-02-18T07:29:13;21.80;78.70
36556;DHT22;40859;50.560;7.268;2023-02-18T07:31:39;21.80;78.70
36556;DHT22;40859;50.560;7.268;2023-02-18T07:34:04;21.80;78.80
36556;DHT22;40859;50.560;7.268;2023-02-18T07:36:30;21.80;78.70
36556;DHT22;40859;50.560;7.268;2023-02-18T07:38:55;21.70;78.70
36556;DHT22;40859;50.560;7.268;2023-02-18T07:41:21;21.70;78.80
36556;DHT22;40859;50.560;7.268;2023-02-18T07:43:47;21.70;78.30
36556;DHT22;40859;50.560;7.268;2023-02-18T07:46:13;21.60;78.90
36556;DHT22;40859;50.560;7.268;2023-02-18T07:48:39;21.60;79.10
36556;DHT22;40859;50.560;7.268;2023-02-18T07:51:05;21.60;79.00
36556;DHT22;40859;50.560;7.268;2023-02-18T07:53:31;21.70;79.00
36556;DHT22;40859;50.560;7.268;2023-02-18T07:55:57;21.60;79.00
36556;DHT22;40859;50.560;7.268;2023-02-18T07:58:25;21.60;79.40
36556;DHT22;40859;50.560;7.268;2023-02-18T08:00:52;21.60;79.70
36556;DHT22;40859;50.560;7.268;2023-02-18T08:03:19;21.60;79.70
36556;DHT22;40859;50.560;7.268;2023-02-18T08:05:46;21.70;79.60
36556;DHT22;40859;50.560;7.268;2023-02-18T08:08:12;21.60;79.50
36556;DHT22;40859;50.560;7.268;2023-02-18T08:10:38;21.70;79.50
36556;DHT22;40859;50.560;7.268;2023-02-18T08:13:04;21.70;79.50
36556;DHT22;40859;50.560;7.268;2023-02-18T08:15:30;21.70;79.50
36556;DHT22;40859;50.560;7.268;2023-02-18T08:17:55;21.70;79.50
36556;DHT22;40859;50.560;7.268;2023-02-18T08:20:21;21.70;79.60
36556;DHT22;40859;50.560;7.268;2023-02-18T08:22:47;21.70;79.50
36556;DHT22;40859;50.560;7.268;2023-02-18T08:25:12;21.70;79.50
36556;DHT22;40859;50.560;7.268;2023-02-18T08:27:38;21.80;79.60
36556;DHT22;40859;50.560;7.268;2023-02-18T08:30:04;21.80;79.50
36556;DHT22;40859;50.560;7.268;2023-02-18T08:32:30;21.80;79.50
36556;DHT22;40859;50.560;7.268;2023-02-18T08:34:55;21.80;80.00
36556;DHT22;40859;50.560;7.268;2023-02-18T08:37:21;21.80;79.60
36556;DHT22;40859;50.560;7.268;2023-02-18T08:39:48;21.80;79.70
36556;DHT22;40859;50.560;7.268;2023-02-18T08:42:14;21.80;79.60
36556;DHT22;40859;50.560;7.268;2023-02-18T08:44:39;21.80;79.60
36556;DHT22;40859;50.560;7.268;2023-02-18T08:47:05;21.80;79.60
36556;DHT22;40859;50.560;7.268;2023-02-18T08:49:31;21.80;79.60
36556;DHT22;40859;50.560;7.268;2023-02-18T08:51:57;21.80;79.60
36556;DHT22;40859;50.560;7.268;2023-02-18T08:54:22;21.80;79.70
36556;DHT22;40859;50.560;7.268;2023-02-18T08:56:48;21.80;79.80
36556;DHT22;40859;50.560;7.268;2023-02-18T08:59:14;21.80;79.90
36556;DHT22;40859;50.560;7.268;2023-02-18T09:01:39;21.80;79.80
36556;DHT22;40859;50.560;7.268;2023-02-18T09:04:05;21.80;80.00
36556;DHT22;40859;50.560;7.268;2023-02-18T09:06:31;21.90;80.00
36556;DHT22;40859;50.560;7.268;2023-02-18T09:08:56;21.80;79.90
36556;DHT22;40859;50.560;7.268;2023-02-18T09:11:22;21.80;79.80
36556;DHT22;40859;50.560;7.268;2023-02-18T09:13:48;21.90;79.90
36556;DHT22;40859;50.560;7.268;2023-02-18T09:16:14;21.90;79.90
36556;DHT22;40859;50.560;7.268;2023-02-18T09:18:42;21.90;79.90
36556;DHT22;40859;50.560;7.268;2023-02-18T09:21:10;21.90;79.80
36556;DHT22;40859;50.560;7.268;2023-02-18T09:23:36;21.90;79.80
36556;DHT22;40859;50.560;7.268;2023-02-18T09:26:05;21.90;79.80
36556;DHT22;40859;50.560;7.268;2023-02-18T09:28:32;21.90;79.90
36556;DHT22;40859;50.560;7.268;2023-02-18T09:31:02;21.90;80.00
36556;DHT22;40859;50.560;7.268;2023-02-18T09:33:28;21.90;79.90
36556;DHT22;40859;50.560;7.268;2023-02-18T09:35:54;21.90;79.80
36556;DHT22;40859;50.560;7.268;2023-02-18T09:38:19;21.90;79.90
36556;DHT22;40859;50.560;7.268;2023-02-18T09:40:49;21.90;79.80
36556;DHT22;40859;50.560;7.268;2023-02-18T09:46:29;21.90;79.70
36556;DHT22;40859;50.560;7.268;2023-02-18T09:48:55;21.90;79.80
36556;DHT22;40859;50.560;7.268;2023-02-18T09:51:21;21.90;79.90
36556;DHT22;40859;50.560;7.268;2023-02-18T09:53:46;21.90;80.00
36556;DHT22;40859;50.560;7.268;2023-02-18T09:56:13;21.90;79.90
36556;DHT22;40859;50.560;7.268;2023-02-18T09:58:39;21.90;80.00
36556;DHT22;40859;50.560;7.268;2023-02-18T10:01:06;21.90;80.00
36556;DHT22;40859;50.560;7.268;2023-02-18T10:03:35;21.90;80.00
36556;DHT22;40859;50.560;7.268;2023-02-18T10:06:05;21.90;80.00
36556;DHT22;40859;50.560;7.268;2023-02-18T10:11:28;21.90;80.00
36556;DHT22;40859;50.560;7.268;2023-02-18T10:13:55;21.90;80.10
36556;DHT22;40859;50.560;7.268;2023-02-18T10:16:22;21.90;80.10
36556;DHT22;40859;50.560;7.268;2023-02-18T10:18:49;21.90;80.10
36556;DHT22;40859;50.560;7.268;2023-02-18T10:21:21;21.90;80.10
36556;DHT22;40859;50.560;7.268;2023-02-18T10:24:31;21.90;80.10
36556;DHT22;40859;50.560;7.268;2023-02-18T10:26:57;21.90;80.00
36556;DHT22;40859;50.560;7.268;2023-02-18T10:29:23;22.00;80.10
36556;DHT22;40859;50.560;7.268;2023-02-18T10:32:04;21.90;80.10
36556;DHT22;40859;50.560;7.268;2023-02-18T10:34:45;21.90;80.00
36556;DHT22;40859;50.560;7.268;2023-02-18T10:50:32;21.90;79.90
36556;DHT22;40859;50.560;7.268;2023-02-18T10:53:00;21.90;79.90
36556;DHT22;40859;50.560;7.268;2023-02-18T10:55:34;22.00;79.90
36556;DHT22;40859;50.560;7.268;2023-02-18T10:58:01;21.90;79.90
36556;DHT22;40859;50.560;7.268;2023-02-18T11:00:27;22.00;79.90
36556;DHT22;40859;50.560;7.268;2023-02-18T11:03:18;22.00;79.90
36556;DHT22;40859;50.560;7.268;2023-02-18T11:05:44;21.90;79.90
36556;DHT22;40859;50.560;7.268;2023-02-18T11:08:24;21.90;79.90
36556;DHT22;40859;50.560;7.268;2023-02-18T11:10:51;21.90;79.90
36556;DHT22;40859;50.560;7.268;2023-02-18T11:13:22;22.00;79.90
36556;DHT22;40859;50.560;7.268;2023-02-18T11:15:59;21.90;79.90
36556;DHT22;40859;50.560;7.268;2023-02-18T11:21:23;22.00;80.00
36556;DHT22;40859;50.560;7.268;2023-02-18T11:23:51;22.00;80.00
36556;DHT22;40859;50.560;7.268;2023-02-18T11:26:20;22.00;80.00
36556;DHT22;40859;50.560;7.268;2023-02-18T11:28:49;22.00;80.10
36556;DHT22;40859;50.560;7.268;2023-02-18T11:31:22;22.00;80.00
36556;DHT22;40859;50.560;7.268;2023-02-18T11:33:52;21.90;79.80
36556;DHT22;40859;50.560;7.268;2023-02-18T11:36:29;21.90;79.70
36556;DHT22;40859;50.560;7.268;2023-02-18T11:38:56;22.00;79.70
36556;DHT22;40859;50.560;7.268;2023-02-18T11:41:33;21.90;79.50
36556;DHT22;40859;50.560;7.268;2023-02-18T11:43:59;22.00;79.40
36556;DHT22;40859;50.560;7.268;2023-02-18T11:46:26;22.00;79.40
36556;DHT22;40859;50.560;7.268;2023-02-18T11:48:52;21.90;79.70
36556;DHT22;40859;50.560;7.268;2023-02-18T11:51:19;21.90;79.90
36556;DHT22;40859;50.560;7.268;2023-02-18T11:56:33;21.90;79.90
36556;DHT22;40859;50.560;7.268;2023-02-18T11:58:59;21.90;80.10
36556;DHT22;40859;50.560;7.268;2023-02-18T12:01:30;21.80;80.20
36556;DHT22;40859;50.560;7.268;2023-02-18T12:07:06;21.80;80.50
36556;DHT22;40859;50.560;7.268;2023-02-18T12:09:37;21.80;80.80
36556;DHT22;40859;50.560;7.268;2023-02-18T12:12:12;21.90;80.60
36556;DHT22;40859;50.560;7.268;2023-02-18T12:14:38;21.90;80.80
36556;DHT22;40859;50.560;7.268;2023-02-18T12:22:13;21.80;80.80
36556;DHT22;40859;50.560;7.268;2023-02-18T12:24:47;21.90;80.90
36556;DHT22;40859;50.560;7.268;2023-02-18T12:27:27;21.90;81.00
36556;DHT22;40859;50.560;7.268;2023-02-18T12:35:32;21.90;81.20
36556;DHT22;40859;50.560;7.268;2023-02-18T12:40:48;21.90;82.20
36556;DHT22;40859;50.560;7.268;2023-02-18T12:43:38;21.90;82.30
36556;DHT22;40859;50.560;7.268;2023-02-18T12:58:40;21.90;82.00
36556;DHT22;40859;50.560;7.268;2023-02-18T13:07:15;21.90;82.70
36556;DHT22;40859;50.560;7.268;2023-02-18T13:16:09;22.00;83.10
36556;DHT22;40859;50.560;7.268;2023-02-18T13:18:37;22.00;82.90
36556;DHT22;40859;50.560;7.268;2023-02-18T13:21:04;21.90;82.80
36556;DHT22;40859;50.560;7.268;2023-02-18T13:23:32;22.00;82.80
36556;DHT22;40859;50.560;7.268;2023-02-18T13:26:02;22.00;83.70
36556;DHT22;40859;50.560;7.268;2023-02-18T13:28:32;21.90;82.80
36556;DHT22;40859;50.560;7.268;2023-02-18T13:33:57;22.00;83.70
36556;DHT22;40859;50.560;7.268;2023-02-18T13:37:11;22.00;82.70
36556;DHT22;40859;50.560;7.268;2023-02-18T13:39:45;22.00;82.70
36556;DHT22;40859;50.560;7.268;2023-02-18T13:42:34;22.00;82.70
36556;DHT22;40859;50.560;7.268;2023-02-18T13:45:04;22.00;82.70
36556;DHT22;40859;50.560;7.268;2023-02-18T13:47:37;22.00;82.70
36556;DHT22;40859;50.560;7.268;2023-02-18T13:54:24;22.00;82.60
36556;DHT22;40859;50.560;7.268;2023-02-18T13:57:03;22.00;82.60
36556;DHT22;40859;50.560;7.268;2023-02-18T13:59:33;22.00;82.50
36556;DHT22;40859;50.560;7.268;2023-02-18T14:06:00;22.00;82.50
36556;DHT22;40859;50.560;7.268;2023-02-18T14:19:26;22.00;82.60
36556;DHT22;40859;50.560;7.268;2023-02-18T14:21:52;22.00;82.50
36556;DHT22;40859;50.560;7.268;2023-02-18T14:24:47;22.00;82.50
36556;DHT22;40859;50.560;7.268;2023-02-18T14:27:14;22.00;82.40
36556;DHT22;40859;50.560;7.268;2023-02-18T14:29:40;22.00;82.50
36556;DHT22;40859;50.560;7.268;2023-02-18T14:32:10;22.00;82.40
36556;DHT22;40859;50.560;7.268;2023-02-18T14:34:46;22.00;82.40
36556;DHT22;40859;50.560;7.268;2023-02-18T14:49:31;22.00;82.40
36556;DHT22;40859;50.560;7.268;2023-02-18T14:52:00;22.00;82.30
36556;DHT22;40859;50.560;7.268;2023-02-18T14:54:27;22.00;82.40
36556;DHT22;40859;50.560;7.268;2023-02-18T14:56:58;22.00;82.50
36556;DHT22;40859;50.560;7.268;2023-02-18T14:59:26;22.00;82.50
36556;DHT22;40859;50.560;7.268;2023-02-18T15:01:54;22.00;82.50
36556;DHT22;40859;50.560;7.268;2023-02-18T15:04:21;22.00;82.60
36556;DHT22;40859;50.560;7.268;2023-02-18T15:06:56;22.00;82.80
36556;DHT22;40859;50.560;7.268;2023-02-18T15:09:22;22.00;83.20
36556;DHT22;40859;50.560;7.268;2023-02-18T15:11:54;22.00;83.50
36556;DHT22;40859;50.560;7.268;2023-02-18T15:14:22;22.10;83.80
36556;DHT22;40859;50.560;7.268;2023-02-18T15:16:49;22.00;83.80
36556;DHT22;40859;50.560;7.268;2023-02-18T15:19:16;22.00;83.80
36556;DHT22;40859;50.560;7.268;2023-02-18T15:21:45;22.10;83.70
36556;DHT22;40859;50.560;7.268;2023-02-18T15:24:18;22.00;83.70
36556;DHT22;40859;50.560;7.268;2023-02-18T15:26:46;22.00;83.70
36556;DHT22;40859;50.560;7.268;2023-02-18T15:29:17;22.10;83.80
36556;DHT22;40859;50.560;7.268;2023-02-18T15:31:44;22.10;83.80
36556;DHT22;40859;50.560;7.268;2023-02-18T15:34:28;22.10;83.70
36556;DHT22;40859;50.560;7.268;2023-02-18T15:36:56;22.00;83.60
36556;DHT22;40859;50.560;7.268;2023-02-18T15:39:22;22.00;83.50
36556;DHT22;40859;50.560;7.268;2023-02-18T15:41:51;22.00;83.50
36556;DHT22;40859;50.560;7.268;2023-02-18T15:44:19;22.10;83.40
36556;DHT22;40859;50.560;7.268;2023-02-18T15:46:45;22.10;83.40
36556;DHT22;40859;50.560;7.268;2023-02-18T15:49:12;22.00;83.40
36556;DHT22;40859;50.560;7.268;2023-02-18T15:51:38;22.10;83.40
36556;DHT22;40859;50.560;7.268;2023-02-18T15:54:11;22.00;84.00
36556;DHT22;40859;50.560;7.268;2023-02-18T15:56:38;22.10;83.30
36556;DHT22;40859;50.560;7.268;2023-02-18T15:59:27;22.10;83.30
36556;DHT22;40859;50.560;7.268;2023-02-18T16:06:20;22.10;83.20
36556;DHT22;40859;50.560;7.268;2023-02-18T16:09:06;22.00;83.10
36556;DHT22;40859;50.560;7.268;2023-02-18T16:11:33;22.10;83.20
36556;DHT22;40859;50.560;7.268;2023-02-18T16:14:01;22.10;83.10
36556;DHT22;40859;50.560;7.268;2023-02-18T16:16:27;22.10;83.10
36556;DHT22;40859;50.560;7.268;2023-02-18T16:18:53;22.10;83.10
36556;DHT22;40859;50.560;7.268;2023-02-18T16:21:24;22.10;83.10
36556;DHT22;40859;50.560;7.268;2023-02-18T16:23:54;22.00;83.00
36556;DHT22;40859;50.560;7.268;2023-02-18T16:26:28;22.10;83.10
36556;DHT22;40859;50.560;7.268;2023-02-18T16:28:58;22.10;83.10
36556;DHT22;40859;50.560;7.268;2023-02-18T16:31:25;22.10;83.00
36556;DHT22;40859;50.560;7.268;2023-02-18T16:33:51;22.10;83.00
36556;DHT22;40859;50.560;7.268;2023-02-18T16:36:16;22.10;82.90
36556;DHT22;40859;50.560;7.268;2023-02-18T16:38:43;22.10;82.90
36556;DHT22;40859;50.560;7.268;2023-02-18T16:41:12;22.10;83.00
36556;DHT22;40859;50.560;7.268;2023-02-18T16:43:38;22.10;83.00
36556;DHT22;40859;50.560;7.268;2023-02-18T16:46:17;22.10;83.10
36556;DHT22;40859;50.560;7.268;2023-02-18T16:48:48;22.10;83.40
36556;DHT22;40859;50.560;7.268;2023-02-18T16:51:15;22.10;83.40
36556;DHT22;40859;50.560;7.268;2023-02-18T16:53:41;22.10;83.40
36556;DHT22;40859;50.560;7.268;2023-02-18T16:56:11;22.10;83.40
36556;DHT22;40859;50.560;7.268;2023-02-18T16:58:38;22.10;83.40
36556;DHT22;40859;50.560;7.268;2023-02-18T17:01:03;22.10;83.40
36556;DHT22;40859;50.560;7.268;2023-02-18T17:03:29;22.10;83.30
36556;DHT22;40859;50.560;7.268;2023-02-18T17:05:55;22.10;83.20
36556;DHT22;40859;50.560;7.268;2023-02-18T17:08:25;22.10;83.20
36556;DHT22;40859;50.560;7.268;2023-02-18T17:10:55;22.10;83.20
36556;DHT22;40859;50.560;7.268;2023-02-18T17:13:22;22.10;83.10
36556;DHT22;40859;50.560;7.268;2023-02-18T17:15:49;22.10;83.10
36556;DHT22;40859;50.560;7.268;2023-02-18T17:18:15;22.10;83.00
36556;DHT22;40859;50.560;7.268;2023-02-18T17:20:41;22.10;83.10
36556;DHT22;40859;50.560;7.268;2023-02-18T17:23:09;22.10;83.00
36556;DHT22;40859;50.560;7.268;2023-02-18T17:25:37;22.10;83.00
36556;DHT22;40859;50.560;7.268;2023-02-18T17:28:03;22.10;83.00
36556;DHT22;40859;50.560;7.268;2023-02-18T17:30:29;22.10;83.00
36556;DHT22;40859;50.560;7.268;2023-02-18T17:32:57;22.10;82.90
36556;DHT22;40859;50.560;7.268;2023-02-18T17:35:23;22.10;82.80
36556;DHT22;40859;50.560;7.268;2023-02-18T17:37:50;22.20;82.90
36556;DHT22;40859;50.560;7.268;2023-02-18T17:40:19;22.10;82.80
36556;DHT22;40859;50.560;7.268;2023-02-18T17:42:45;22.10;82.70
36556;DHT22;40859;50.560;7.268;2023-02-18T17:45:32;22.10;82.70
36556;DHT22;40859;50.560;7.268;2023-02-18T17:47:59;22.10;82.70
36556;DHT22;40859;50.560;7.268;2023-02-18T17:50:25;22.10;82.70
36556;DHT22;40859;50.560;7.268;2023-02-18T17:52:51;22.10;82.70
36556;DHT22;40859;50.560;7.268;2023-02-18T17:55:19;22.10;82.60
36556;DHT22;40859;50.560;7.268;2023-02-18T17:57:44;22.10;82.60
36556;DHT22;40859;50.560;7.268;2023-02-18T18:00:14;22.10;82.60
36556;DHT22;40859;50.560;7.268;2023-02-18T18:02:41;22.10;82.60
36556;DHT22;40859;50.560;7.268;2023-02-18T18:05:12;22.10;82.60
36556;DHT22;40859;50.560;7.268;2023-02-18T18:07:38;22.10;82.60
36556;DHT22;40859;50.560;7.268;2023-02-18T18:10:04;22.10;82.60
36556;DHT22;40859;50.560;7.268;2023-02-18T18:12:30;22.10;82.70
36556;DHT22;40859;50.560;7.268;2023-02-18T18:14:55;22.10;82.80
36556;DHT22;40859;50.560;7.268;2023-02-18T18:17:21;22.10;83.00
36556;DHT22;40859;50.560;7.268;2023-02-18T18:19:47;22.10;83.20
36556;DHT22;40859;50.560;7.268;2023-02-18T18:22:12;22.10;83.40
36556;DHT22;40859;50.560;7.268;2023-02-18T18:24:38;22.20;83.50
36556;DHT22;40859;50.560;7.268;2023-02-18T18:27:04;22.10;83.50
36556;DHT22;40859;50.560;7.268;2023-02-18T18:29:30;22.20;83.60
36556;DHT22;40859;50.560;7.268;2023-02-18T18:31:55;22.10;83.50
36556;DHT22;40859;50.560;7.268;2023-02-18T18:34:21;22.10;83.50
36556;DHT22;40859;50.560;7.268;2023-02-18T18:36:46;22.10;83.60
36556;DHT22;40859;50.560;7.268;2023-02-18T18:39:12;22.20;83.70
36556;DHT22;40859;50.560;7.268;2023-02-18T18:41:38;22.20;83.50
36556;DHT22;40859;50.560;7.268;2023-02-18T18:44:03;22.20;83.50
36556;DHT22;40859;50.560;7.268;2023-02-18T18:46:29;22.20;83.40
36556;DHT22;40859;50.560;7.268;2023-02-18T18:48:55;22.20;83.60
36556;DHT22;40859;50.560;7.268;2023-02-18T18:51:24;22.20;83.60
36556;DHT22;40859;50.560;7.268;2023-02-18T18:53:51;22.10;83.50
36556;DHT22;40859;50.560;7.268;2023-02-18T18:56:17;22.20;83.40
36556;DHT22;40859;50.560;7.268;2023-02-18T18:58:43;22.20;83.50
36556;DHT22;40859;50.560;7.268;2023-02-18T19:01:13;22.20;83.40
36556;DHT22;40859;50.560;7.268;2023-02-18T19:03:39;22.10;83.50
36556;DHT22;40859;50.560;7.268;2023-02-18T19:06:08;22.10;83.40
36556;DHT22;40859;50.560;7.268;2023-02-18T19:08:34;22.10;83.40
36556;DHT22;40859;50.560;7.268;2023-02-18T19:10:59;22.10;83.40
36556;DHT22;40859;50.560;7.268;2023-02-18T19:13:27;22.20;83.60
36556;DHT22;40859;50.560;7.268;2023-02-18T19:16:06;22.20;83.60
36556;DHT22;40859;50.560;7.268;2023-02-18T19:18:33;22.20;83.50
36556;DHT22;40859;50.560;7.268;2023-02-18T19:20:59;22.20;83.40
36556;DHT22;40859;50.560;7.268;2023-02-18T19:23:26;22.20;83.50
36556;DHT22;40859;50.560;7.268;2023-02-18T19:25:52;22.20;83.40
36556;DHT22;40859;50.560;7.268;2023-02-18T19:28:18;22.20;83.40
36556;DHT22;40859;50.560;7.268;2023-02-18T19:30:43;22.20;83.40
36556;DHT22;40859;50.560;7.268;2023-02-18T19:33:11;22.20;83.40
36556;DHT22;40859;50.560;7.268;2023-02-18T19:35:38;22.20;83.40
36556;DHT22;40859;50.560;7.268;2023-02-18T19:38:05;22.20;83.40
36556;DHT22;40859;50.560;7.268;2023-02-18T19:40:31;22.20;83.40
36556;DHT22;40859;50.560;7.268;2023-02-18T19:42:57;22.20;83.30
36556;DHT22;40859;50.560;7.268;2023-02-18T19:45:23;22.20;83.30
36556;DHT22;40859;50.560;7.268;2023-02-18T19:47:52;22.20;83.30
36556;DHT22;40859;50.560;7.268;2023-02-18T19:50:18;22.20;83.30
36556;DHT22;40859;50.560;7.268;2023-02-18T19:52:44;22.20;83.30
36556;DHT22;40859;50.560;7.268;2023-02-18T19:55:09;22.20;83.40
36556;DHT22;40859;50.560;7.268;2023-02-18T19:57:35;22.20;83.40
36556;DHT22;40859;50.560;7.268;2023-02-18T20:00:02;22.20;83.40
36556;DHT22;40859;50.560;7.268;2023-02-18T20:02:28;22.20;83.30
36556;DHT22;40859;50.560;7.268;2023-02-18T20:04:57;22.20;83.30
36556;DHT22;40859;50.560;7.268;2023-02-18T20:07:26;22.20;83.30
36556;DHT22;40859;50.560;7.268;2023-02-18T20:09:52;22.20;83.30
36556;DHT22;40859;50.560;7.268;2023-02-18T20:12:18;22.20;83.30
36556;DHT22;40859;50.560;7.268;2023-02-18T20:14:44;22.20;83.20
36556;DHT22;40859;50.560;7.268;2023-02-18T20:17:10;22.20;83.30
36556;DHT22;40859;50.560;7.268;2023-02-18T20:19:35;22.20;83.20
36556;DHT22;40859;50.560;7.268;2023-02-18T20:22:02;22.20;83.20
36556;DHT22;40859;50.560;7.268;2023-02-18T20:24:28;22.20;83.20
36556;DHT22;40859;50.560;7.268;2023-02-18T20:26:55;22.20;83.20
36556;DHT22;40859;50.560;7.268;2023-02-18T20:29:21;22.20;83.20
36556;DHT22;40859;50.560;7.268;2023-02-18T20:31:47;22.20;83.30
36556;DHT22;40859;50.560;7.268;2023-02-18T20:34:13;22.20;83.10
36556;DHT22;40859;50.560;7.268;2023-02-18T20:36:39;22.10;83.20
36556;DHT22;40859;50.560;7.268;2023-02-18T20:39:11;22.20;83.30
36556;DHT22;40859;50.560;7.268;2023-02-18T20:41:38;22.20;83.30
36556;DHT22;40859;50.560;7.268;2023-02-18T20:44:04;22.20;83.50
36556;DHT22;40859;50.560;7.268;2023-02-18T20:46:29;22.20;83.40
36556;DHT22;40859;50.560;7.268;2023-02-18T20:48:57;22.20;83.40
36556;DHT22;40859;50.560;7.268;2023-02-18T20:51:22;22.20;83.40
36556;DHT22;40859;50.560;7.268;2023-02-18T20:53:49;22.20;83.30
36556;DHT22;40859;50.560;7.268;2023-02-18T20:56:14;22.20;83.40
36556;DHT22;40859;50.560;7.268;2023-02-18T20:58:42;22.20;83.30
36556;DHT22;40859;50.560;7.268;2023-02-18T21:01:08;22.20;83.20
36556;DHT22;40859;50.560;7.268;2023-02-18T21:03:35;22.20;83.20
36556;DHT22;40859;50.560;7.268;2023-02-18T21:06:10;22.20;83.30
36556;DHT22;40859;50.560;7.268;2023-02-18T21:08:38;22.20;83.20
36556;DHT22;40859;50.560;7.268;2023-02-18T21:11:05;22.20;83.20
36556;DHT22;40859;50.560;7.268;2023-02-18T21:13:31;22.20;83.20
36556;DHT22;40859;50.560;7.268;2023-02-18T21:15:56;22.20;84.00
36556;DHT22;40859;50.560;7.268;2023-02-18T21:18:22;22.20;83.20
36556;DHT22;40859;50.560;7.268;2023-02-18T21:20:48;22.20;83.20
36556;DHT22;40859;50.560;7.268;2023-02-18T21:23:14;22.20;83.30
36556;DHT22;40859;50.560;7.268;2023-02-18T21:25:39;22.20;83.20
36556;DHT22;40859;50.560;7.268;2023-02-18T21:28:05;22.20;83.20
36556;DHT22;40859;50.560;7.268;2023-02-18T21:30:35;22.20;83.30
36556;DHT22;40859;50.560;7.268;2023-02-18T21:33:01;22.20;83.30
36556;DHT22;40859;50.560;7.268;2023-02-18T21:35:27;22.20;83.20
36556;DHT22;40859;50.560;7.268;2023-02-18T21:37:53;22.20;83.20
36556;DHT22;40859;50.560;7.268;2023-02-18T21:40:18;22.20;83.20
36556;DHT22;40859;50.560;7.268;2023-02-18T21:42:44;22.20;83.20
36556;DHT22;40859;50.560;7.268;2023-02-18T21:45:10;22.20;83.20
36556;DHT22;40859;50.560;7.268;2023-02-18T21:47:44;22.20;83.20
36556;DHT22;40859;50.560;7.268;2023-02-18T21:50:10;22.20;83.40
36556;DHT22;40859;50.560;7.268;2023-02-18T21:52:37;22.20;83.20
36556;DHT22;40859;50.560;7.268;2023-02-18T21:55:03;22.20;83.20
36556;DHT22;40859;50.560;7.268;2023-02-18T21:57:28;22.20;83.30
36556;DHT22;40859;50.560;7.268;2023-02-18T21:59:54;22.20;83.30
36556;DHT22;40859;50.560;7.268;2023-02-18T22:02:24;22.20;83.30
36556;DHT22;40859;50.560;7.268;2023-02-18T22:04:50;22.20;83.30
36556;DHT22;40859;50.560;7.268;2023-02-18T22:07:16;22.20;83.30
36556;DHT22;40859;50.560;7.268;2023-02-18T22:09:43;22.20;83.30
36556;DHT22;40859;50.560;7.268;2023-02-18T22:12:08;22.20;83.30
36556;DHT22;40859;50.560;7.268;2023-02-18T22:14:37;22.20;83.20
36556;DHT22;40859;50.560;7.268;2023-02-18T22:17:04;22.20;83.20
36556;DHT22;40859;50.560;7.268;2023-02-18T22:19:29;22.20;83.20
36556;DHT22;40859;50.560;7.268;2023-02-18T22:21:55;22.20;83.30
36556;DHT22;40859;50.560;7.268;2023-02-18T22:24:21;22.20;83.20
36556;DHT22;40859;50.560;7.268;2023-02-18T22:26:46;22.20;83.30
36556;DHT22;40859;50.560;7.268;2023-02-18T22:29:13;22.20;83.20
36556;DHT22;40859;50.560;7.268;2023-02-18T22:31:40;22.20;83.20
36556;DHT22;40859;50.560;7.268;2023-02-18T22:34:05;22.20;83.20
36556;DHT22;40859;50.560;7.268;2023-02-18T22:36:31;22.20;83.20
36556;DHT22;40859;50.560;7.268;2023-02-18T22:38:57;22.20;83.20
36556;DHT22;40859;50.560;7.268;2023-02-18T22:41:25;22.20;83.10
36556;DHT22;40859;50.560;7.268;2023-02-18T22:43:54;22.20;83.10
36556;DHT22;40859;50.560;7.268;2023-02-18T22:46:20;22.20;83.10
36556;DHT22;40859;50.560;7.268;2023-02-18T22:48:46;22.20;83.00
36556;DHT22;40859;50.560;7.268;2023-02-18T22:51:15;22.20;83.00
36556;DHT22;40859;50.560;7.268;2023-02-18T22:53:42;22.20;82.80
36556;DHT22;40859;50.560;7.268;2023-02-18T22:56:10;22.20;82.70
36556;DHT22;40859;50.560;7.268;2023-02-18T22:58:39;22.20;82.60
36556;DHT22;40859;50.560;7.268;2023-02-18T23:01:07;22.20;82.40
36556;DHT22;40859;50.560;7.268;2023-02-18T23:03:33;22.20;82.30
36556;DHT22;40859;50.560;7.268;2023-02-18T23:06:02;22.20;82.20
36556;DHT22;40859;50.560;7.268;2023-02-18T23:08:28;22.20;82.20
36556;DHT22;40859;50.560;7.268;2023-02-18T23:11:04;22.20;82.20
36556;DHT22;40859;50.560;7.268;2023-02-18T23:13:30;22.20;82.20
36556;DHT22;40859;50.560;7.268;2023-02-18T23:15:59;22.20;82.20
36556;DHT22;40859;50.560;7.268;2023-02-18T23:18:26;22.20;82.20
36556;DHT22;40859;50.560;7.268;2023-02-18T23:20:52;22.20;82.20
36556;DHT22;40859;50.560;7.268;2023-02-18T23:23:36;22.20;82.20
36556;DHT22;40859;50.560;7.268;2023-02-18T23:26:02;22.20;82.20